Time;durP1;ratioP1;P1;durP2;ratioP2;P2;SDS_P1;SDS_P2;PMS_P1;PMS_P2;Temp;Humidity;BMP_temperature;BMP_pressure;BME280_temperature;BME280_humidity;BME280_pressure;Samples;Min_cycle;Max_cycle;Signal;HPM_P1;HPM_P2
2023/05/19 00:02:17;;;;;;;11.60;5.72;;;7.30;99.90;;;;;;5007746;28;20138;-79
2023/05/19 00:04:43;;;;;;;16.27;5.47;;;7.30;99.90;;;;;;4971101;28;20067;-79
2023/05/19 00:07:10;;;;;;;15.27;6.60;;;7.30;99.90;;;;;;5002469;28;20029;-79
2023/05/19 00:09:36;;;;;;;14.00;6.55;;;7.30;99.90;;;;;;4973226;28;20045;-79
2023/05/19 00:12:02;;;;;;;14.55;6.25;;;7.20;99.90;;;;;;5003084;28;20045;-80
2023/05/19 00:14:28;;;;;;;15.48;6.70;;;7.20;99.90;;;;;;5022283;28;20092;-79
2023/05/19 00:16:57;;;;;;;15.40;6.38;;;7.20;99.90;;;;;;4985085;28;20088;-79
2023/05/19 00:19:24;;;;;;;14.90;6.32;;;7.20;99.90;;;;;;4999248;28;20036;-79
2023/05/19 00:21:49;;;;;;;15.45;6.28;;;7.20;99.90;;;;;;4972495;28;20149;-79
2023/05/19 00:24:15;;;;;;;10.52;5.80;;;7.10;99.90;;;;;;4999659;28;20161;-79
2023/05/19 00:26:41;;;;;;;17.23;6.50;;;7.10;99.90;;;;;;5003709;28;20045;-79
2023/05/19 00:29:06;;;;;;;17.60;6.65;;;7.10;99.90;;;;;;4980696;28;20076;-79
2023/05/19 00:31:35;;;;;;;11.90;6.47;;;7.00;99.90;;;;;;5022058;28;20037;-79
2023/05/19 00:34:01;;;;;;;14.80;6.72;;;7.10;99.90;;;;;;4954844;28;20091;-79
2023/05/19 00:36:27;;;;;;;16.58;6.93;;;7.00;99.90;;;;;;4972056;28;20554;-79
2023/05/19 00:38:53;;;;;;;12.77;6.20;;;7.00;99.90;;;;;;4986444;28;20124;-79
2023/05/19 00:41:18;;;;;;;17.05;7.45;;;7.00;99.90;;;;;;4985216;28;20049;-79
2023/05/19 00:43:44;;;;;;;14.93;6.25;;;7.00;99.90;;;;;;4989872;28;20037;-79
2023/05/19 00:46:10;;;;;;;14.98;7.03;;;7.00;99.90;;;;;;4982241;28;20046;-79
2023/05/19 00:48:35;;;;;;;16.90;7.45;;;7.00;99.90;;;;;;4997471;28;20052;-79
2023/05/19 00:51:05;;;;;;;18.95;7.25;;;7.00;99.90;;;;;;5000099;28;20498;-79
2023/05/19 00:53:34;;;;;;;17.38;7.68;;;7.00;99.90;;;;;;4985211;28;20049;-79
2023/05/19 00:56:01;;;;;;;15.77;7.22;;;6.90;99.90;;;;;;4988515;28;20077;-79
2023/05/19 00:58:29;;;;;;;18.23;7.18;;;6.80;99.90;;;;;;5000448;28;20068;-79
2023/05/19 01:01:07;;;;;;;14.48;6.70;;;6.90;99.90;;;;;;4995015;28;20045;-79
2023/05/19 01:03:34;;;;;;;16.83;7.35;;;6.90;99.90;;;;;;5002830;28;20057;-79
2023/05/19 01:06:03;;;;;;;16.10;7.03;;;6.80;99.90;;;;;;4953649;28;20042;-79
2023/05/19 01:08:31;;;;;;;14.85;7.22;;;6.80;99.90;;;;;;5001040;28;20567;-79
2023/05/19 01:10:57;;;;;;;13.52;6.80;;;6.80;99.90;;;;;;5021579;28;20042;-78
2023/05/19 01:13:23;;;;;;;16.10;7.25;;;6.80;99.90;;;;;;5007791;28;20052;-79
2023/05/19 01:16:20;;;;;;;14.98;7.82;;;6.80;99.90;;;;;;4983106;28;20038;-79
2023/05/19 01:18:54;;;;;;;15.23;7.85;;;6.80;99.90;;;;;;5009000;28;20092;-79
2023/05/19 01:21:35;;;;;;;15.13;7.03;;;6.70;99.90;;;;;;4987531;28;20046;-79
2023/05/19 01:24:12;;;;;;;19.77;7.53;;;6.70;99.90;;;;;;4988038;28;20124;-79
2023/05/19 01:27:11;;;;;;;15.68;6.97;;;6.60;99.90;;;;;;5000186;28;20038;-80
2023/05/19 01:29:45;;;;;;;16.33;7.65;;;6.60;99.90;;;;;;4984471;28;20038;-80
2023/05/19 01:32:14;;;;;;;18.45;8.27;;;6.60;99.90;;;;;;5003065;28;20053;-79
2023/05/19 01:34:43;;;;;;;17.73;8.50;;;6.60;99.90;;;;;;4991125;28;20042;-80
2023/05/19 01:37:09;;;;;;;17.40;7.53;;;6.60;99.90;;;;;;5002963;28;20125;-79
2023/05/19 01:39:35;;;;;;;18.08;8.38;;;6.50;99.90;;;;;;5005071;28;20132;-79
2023/05/19 01:42:02;;;;;;;15.32;7.90;;;6.50;99.90;;;;;;5008076;28;20561;-79
2023/05/19 01:44:28;;;;;;;14.77;7.43;;;6.50;99.90;;;;;;5005932;28;20087;-79
2023/05/19 01:46:55;;;;;;;16.48;7.28;;;6.50;99.90;;;;;;4957985;28;20037;-79
2023/05/19 01:49:21;;;;;;;19.58;8.10;;;6.50;99.90;;;;;;4989443;28;20037;-80
2023/05/19 01:51:48;;;;;;;19.90;8.13;;;6.50;99.90;;;;;;4971835;28;20483;-80
2023/05/19 01:54:14;;;;;;;19.10;9.05;;;6.40;99.90;;;;;;5017313;28;20145;-79
2023/05/19 01:57:02;;;;;;;21.13;8.90;;;6.50;99.90;;;;;;4989485;28;20547;-79
2023/05/19 01:59:50;;;;;;;16.80;8.57;;;6.40;99.90;;;;;;5000648;28;20446;-79
2023/05/19 02:02:59;;;;;;;23.30;8.82;;;6.40;99.90;;;;;;4989907;28;20069;-80
2023/05/19 02:05:36;;;;;;;18.88;8.27;;;6.40;99.90;;;;;;5009057;28;20088;-79
2023/05/19 02:08:19;;;;;;;30.55;9.35;;;6.40;99.90;;;;;;5006638;28;20148;-79
2023/05/19 02:10:55;;;;;;;17.40;9.32;;;6.40;99.90;;;;;;4996190;28;20510;-79
2023/05/19 02:13:23;;;;;;;15.27;8.10;;;6.40;99.90;;;;;;5000368;28;20049;-79
2023/05/19 02:15:53;;;;;;;17.75;8.75;;;6.40;99.90;;;;;;4994430;28;20046;-80
2023/05/19 02:18:20;;;;;;;22.33;9.23;;;6.30;99.90;;;;;;5010282;28;20048;-79
2023/05/19 02:20:47;;;;;;;18.27;8.20;;;6.40;99.90;;;;;;4985828;28;20072;-79
2023/05/19 02:23:13;;;;;;;18.73;8.27;;;6.30;99.90;;;;;;5001202;28;20068;-79
2023/05/19 02:25:38;;;;;;;20.08;8.75;;;6.30;99.90;;;;;;4964048;28;20065;-79
2023/05/19 02:28:05;;;;;;;21.33;8.60;;;6.30;99.90;;;;;;4968125;28;20050;-80
2023/05/19 02:30:31;;;;;;;19.55;7.75;;;6.30;99.90;;;;;;5001667;28;20037;-79
2023/05/19 02:32:57;;;;;;;15.82;7.85;;;6.20;99.90;;;;;;5003569;28;20037;-79
2023/05/19 02:35:22;;;;;;;20.10;8.18;;;6.20;99.90;;;;;;4959893;28;20084;-79
2023/05/19 02:37:48;;;;;;;22.38;8.70;;;6.20;99.90;;;;;;4995866;28;20041;-79
2023/05/19 02:40:14;;;;;;;15.00;7.75;;;6.10;99.90;;;;;;4968135;28;20538;-79
2023/05/19 02:42:40;;;;;;;20.55;8.68;;;6.10;99.90;;;;;;4989304;28;20038;-79
2023/05/19 02:45:06;;;;;;;23.17;8.98;;;6.10;99.90;;;;;;4988714;28;20521;-79
2023/05/19 02:47:31;;;;;;;24.38;8.23;;;6.10;99.90;;;;;;4955411;28;20538;-79
2023/05/19 02:49:57;;;;;;;24.13;8.02;;;5.80;99.90;;;;;;4952970;28;20034;-79
2023/05/19 02:52:22;;;;;;;18.80;7.70;;;6.10;99.90;;;;;;4959377;28;20038;-79
2023/05/19 02:54:50;;;;;;;18.23;8.38;;;6.10;99.90;;;;;;4981340;28;20539;-80
2023/05/19 02:57:15;;;;;;;20.55;8.75;;;6.10;99.90;;;;;;4987320;28;20418;-80
2023/05/19 02:59:42;;;;;;;17.23;7.65;;;6.10;99.90;;;;;;4971830;28;20049;-79
2023/05/19 03:02:07;;;;;;;18.83;8.18;;;6.00;99.90;;;;;;4961565;28;20496;-80
2023/05/19 03:04:40;;;;;;;16.38;7.85;;;6.10;99.90;;;;;;5015650;28;20124;-80
2023/05/19 03:07:06;;;;;;;17.20;8.43;;;6.00;99.90;;;;;;4992938;28;20046;-80
2023/05/19 03:09:31;;;;;;;21.60;8.10;;;6.00;99.90;;;;;;5024543;28;20033;-79
2023/05/19 03:12:02;;;;;;;18.98;8.25;;;6.00;99.90;;;;;;5001435;28;20499;-80
2023/05/19 03:14:28;;;;;;;19.63;9.02;;;5.90;99.90;;;;;;4971363;28;20124;-80
2023/05/19 03:16:54;;;;;;;21.90;8.57;;;5.90;99.90;;;;;;4990363;28;20551;-80
2023/05/19 03:19:20;;;;;;;21.02;8.60;;;6.00;99.90;;;;;;4970254;28;20106;-80
2023/05/19 03:21:46;;;;;;;19.92;8.57;;;5.90;99.90;;;;;;4967502;28;20487;-80
2023/05/19 03:24:12;;;;;;;20.38;8.80;;;6.00;99.90;;;;;;4975663;28;20044;-79
2023/05/19 03:26:38;;;;;;;18.95;8.23;;;5.90;99.90;;;;;;4980311;28;20087;-80
2023/05/19 03:29:03;;;;;;;19.65;7.40;;;6.00;99.90;;;;;;4988278;28;20045;-80
2023/05/19 03:31:30;;;;;;;19.85;8.38;;;5.90;99.90;;;;;;4986994;28;20103;-80
2023/05/19 03:33:58;;;;;;;22.10;8.23;;;5.90;99.90;;;;;;4988166;28;20049;-80
2023/05/19 03:36:25;;;;;;;19.45;9.02;;;5.90;99.90;;;;;;5002891;28;20045;-80
2023/05/19 03:38:50;;;;;;;22.23;9.23;;;5.90;99.90;;;;;;4979489;28;20089;-80
2023/05/19 03:41:16;;;;;;;18.52;8.57;;;5.80;99.90;;;;;;4981869;28;20061;-80
2023/05/19 03:43:42;;;;;;;18.63;8.20;;;5.90;99.90;;;;;;4970462;28;20112;-80
2023/05/19 03:46:07;;;;;;;16.92;7.63;;;5.90;99.90;;;;;;4955152;28;20038;-80
2023/05/19 03:48:33;;;;;;;21.33;8.43;;;5.80;99.90;;;;;;4998199;28;20057;-80
2023/05/19 03:50:58;;;;;;;19.42;8.50;;;5.90;99.90;;;;;;4973196;28;20037;-80
2023/05/19 03:53:25;;;;;;;22.00;9.85;;;5.90;99.90;;;;;;5000586;28;20526;-80
2023/05/19 03:55:50;;;;;;;18.58;8.27;;;5.90;99.90;;;;;;4988777;28;20104;-80
2023/05/19 03:58:16;;;;;;;23.83;8.88;;;5.90;99.90;;;;;;5009428;28;20046;-80
2023/05/19 04:00:42;;;;;;;18.30;8.32;;;5.90;99.90;;;;;;4982958;28;20045;-80
2023/05/19 04:03:07;;;;;;;23.38;8.85;;;5.90;99.90;;;;;;5003248;28;20042;-80
2023/05/19 04:05:33;;;;;;;30.20;8.48;;;5.90;99.90;;;;;;4987701;28;20123;-80
2023/05/19 04:07:59;;;;;;;39.60;11.20;;;6.00;99.90;;;;;;5021511;28;20129;-80
2023/05/19 04:10:24;;;;;;;85.65;13.32;;;6.00;99.90;;;;;;4963330;28;20117;-80
2023/05/19 04:12:50;;;;;;;59.28;11.82;;;6.00;99.90;;;;;;4971879;28;20049;-80
2023/05/19 04:15:16;;;;;;;54.00;10.15;;;5.90;99.90;;;;;;4970892;28;20038;-80
2023/05/19 04:17:42;;;;;;;61.03;10.80;;;5.90;99.90;;;;;;4971722;28;20042;-80
2023/05/19 04:20:08;;;;;;;59.20;10.27;;;5.90;99.90;;;;;;4981905;28;20039;-80
2023/05/19 04:22:34;;;;;;;95.53;10.85;;;6.00;99.90;;;;;;4978577;28;20042;-80
2023/05/19 04:25:00;;;;;;;104.80;12.75;;;6.00;99.90;;;;;;4969235;28;20041;-80
2023/05/19 04:27:27;;;;;;;68.88;10.88;;;6.00;99.90;;;;;;5022653;28;20042;-80
2023/05/19 04:29:53;;;;;;;35.63;8.85;;;6.00;99.90;;;;;;4970083;28;20092;-80
2023/05/19 04:32:19;;;;;;;75.82;11.15;;;6.00;99.90;;;;;;4985457;28;20061;-80
2023/05/19 04:34:45;;;;;;;63.53;10.40;;;6.00;99.90;;;;;;4983597;28;20398;-79
2023/05/19 04:37:17;;;;;;;78.47;9.70;;;6.10;99.90;;;;;;4984267;28;20104;-80
2023/05/19 04:39:44;;;;;;;40.47;9.20;;;6.00;99.90;;;;;;4976342;28;20038;-79
2023/05/19 04:42:10;;;;;;;29.52;8.98;;;6.10;99.90;;;;;;4978904;28;20041;-80
2023/05/19 04:44:38;;;;;;;15.15;8.10;;;6.10;99.90;;;;;;4986757;28;20070;-80
2023/05/19 04:47:07;;;;;;;20.67;9.90;;;6.10;99.90;;;;;;4978790;28;20057;-80
2023/05/19 04:49:39;;;;;;;22.60;8.02;;;6.10;99.90;;;;;;4977193;28;20041;-80
2023/05/19 04:52:06;;;;;;;34.15;9.15;;;6.20;99.90;;;;;;4999985;28;20491;-80
2023/05/19 04:54:34;;;;;;;21.05;8.05;;;6.20;99.90;;;;;;4982211;28;20089;-80
2023/05/19 04:56:59;;;;;;;15.10;8.30;;;6.20;99.90;;;;;;4984932;28;20384;-80
2023/05/19 04:59:25;;;;;;;13.77;7.57;;;6.30;99.90;;;;;;4985453;28;20049;-79
2023/05/19 05:01:51;;;;;;;15.55;8.23;;;6.30;99.90;;;;;;4955471;28;20061;-80
2023/05/19 05:04:16;;;;;;;23.13;9.00;;;6.40;99.90;;;;;;4970435;28;20038;-80
2023/05/19 05:06:46;;;;;;;17.92;7.88;;;6.50;99.90;;;;;;4973013;28;20048;-79
2023/05/19 05:09:15;;;;;;;18.50;9.05;;;6.50;99.90;;;;;;4971694;28;20048;-80
2023/05/19 05:11:42;;;;;;;15.63;8.75;;;6.50;99.90;;;;;;4971555;28;20125;-79
2023/05/19 05:14:08;;;;;;;15.23;8.63;;;6.60;99.90;;;;;;5004349;28;20034;-80
2023/05/19 05:16:34;;;;;;;15.15;8.43;;;6.60;99.90;;;;;;4986508;28;20100;-80
2023/05/19 05:19:00;;;;;;;17.00;8.90;;;6.70;99.90;;;;;;4956456;28;20065;-80
2023/05/19 05:21:27;;;;;;;14.60;8.90;;;6.70;99.90;;;;;;4968971;28;20657;-80
2023/05/19 05:23:54;;;;;;;17.50;9.05;;;6.80;99.90;;;;;;4971344;28;20095;-80
2023/05/19 05:26:23;;;;;;;19.15;9.75;;;6.90;99.90;;;;;;4971816;28;20037;-80
2023/05/19 05:28:49;;;;;;;19.83;9.40;;;6.90;99.90;;;;;;4986237;28;20046;-80
2023/05/19 05:31:15;;;;;;;19.08;10.18;;;7.00;99.90;;;;;;4987488;28;20038;-80
2023/05/19 05:33:41;;;;;;;20.55;8.93;;;7.10;99.90;;;;;;4988636;28;20038;-80
2023/05/19 05:36:07;;;;;;;18.27;9.32;;;7.10;99.90;;;;;;4971880;28;20079;-80
2023/05/19 05:38:33;;;;;;;20.63;9.77;;;7.20;99.90;;;;;;5002255;28;20435;-80
2023/05/19 05:40:59;;;;;;;22.77;10.73;;;7.30;99.90;;;;;;4939144;28;20030;-80
2023/05/19 05:43:25;;;;;;;24.55;10.93;;;7.40;99.90;;;;;;4986914;28;20074;-80
2023/05/19 05:45:51;;;;;;;21.92;10.35;;;7.50;99.90;;;;;;4969375;28;20069;-80
2023/05/19 05:48:17;;;;;;;19.52;10.05;;;7.60;99.90;;;;;;4987204;28;20046;-80
2023/05/19 05:50:44;;;;;;;23.33;10.90;;;7.70;99.90;;;;;;4987756;28;20417;-80
2023/05/19 05:53:16;;;;;;;20.13;10.25;;;7.80;99.90;;;;;;4969226;28;20145;-80
2023/05/19 05:55:42;;;;;;;19.98;10.35;;;8.00;99.90;;;;;;4980138;28;20042;-80
2023/05/19 05:58:09;;;;;;;22.85;10.18;;;8.00;99.90;;;;;;5017063;28;20051;-80
2023/05/19 06:00:36;;;;;;;19.00;9.20;;;8.20;99.90;;;;;;4979664;28;20056;-80
2023/05/19 06:03:03;;;;;;;17.80;9.70;;;8.20;99.90;;;;;;4977117;28;20045;-80
2023/05/19 06:05:29;;;;;;;17.95;9.55;;;8.40;99.90;;;;;;5006795;28;20124;-81
2023/05/19 06:07:55;;;;;;;17.10;9.77;;;8.50;99.90;;;;;;4990931;28;20386;-82
2023/05/19 06:10:20;;;;;;;18.63;9.20;;;8.50;99.90;;;;;;4990153;28;20036;-80
2023/05/19 06:12:46;;;;;;;16.33;8.98;;;8.60;99.90;;;;;;4984547;28;20531;-80
2023/05/19 06:15:12;;;;;;;14.55;8.32;;;8.70;99.90;;;;;;5008804;28;20037;-80
2023/05/19 06:17:38;;;;;;;12.93;8.88;;;8.80;99.90;;;;;;5011299;28;20128;-81
2023/05/19 06:20:05;;;;;;;14.13;9.25;;;8.90;99.90;;;;;;4994226;28;20042;-81
2023/05/19 06:22:31;;;;;;;15.38;8.45;;;9.00;99.90;;;;;;5011104;28;20124;-82
2023/05/19 06:24:57;;;;;;;17.33;8.40;;;9.00;99.90;;;;;;5010203;28;20048;-80
2023/05/19 06:27:23;;;;;;;16.42;8.40;;;9.20;99.90;;;;;;5002357;28;20029;-80
2023/05/19 06:29:48;;;;;;;13.90;6.97;;;9.40;99.90;;;;;;4971949;28;20084;-80
2023/05/19 06:32:14;;;;;;;15.43;8.43;;;9.50;99.90;;;;;;5008882;28;20041;-80
2023/05/19 06:34:40;;;;;;;11.20;6.68;;;9.60;99.90;;;;;;4975874;28;20681;-79
2023/05/19 06:37:06;;;;;;;14.70;6.82;;;9.80;99.90;;;;;;5005835;28;20478;-80
2023/05/19 06:39:31;;;;;;;14.75;6.43;;;9.90;99.90;;;;;;4992736;28;20112;-80
2023/05/19 06:41:57;;;;;;;9.88;5.88;;;10.10;99.90;;;;;;5009284;28;20087;-79
2023/05/19 06:44:23;;;;;;;9.38;6.28;;;10.20;99.90;;;;;;4990816;28;20458;-79
2023/05/19 06:46:48;;;;;;;9.93;5.63;;;10.30;99.90;;;;;;5011221;28;20037;-80
2023/05/19 06:49:14;;;;;;;11.07;6.05;;;10.50;99.90;;;;;;5006622;28;20064;-80
2023/05/19 06:51:40;;;;;;;12.70;6.13;;;10.60;99.90;;;;;;4995182;28;20280;-81
2023/05/19 06:54:06;;;;;;;11.43;5.70;;;10.70;99.90;;;;;;4997085;28;20052;-81
2023/05/19 06:56:32;;;;;;;12.18;5.95;;;10.90;99.90;;;;;;4980075;28;20052;-81
2023/05/19 06:58:57;;;;;;;7.38;5.47;;;11.00;99.90;;;;;;4978400;28;20146;-81
2023/05/19 07:01:25;;;;;;;10.43;5.38;;;11.20;99.90;;;;;;4997465;28;20041;-79
2023/05/19 07:03:51;;;;;;;10.20;5.47;;;11.40;99.90;;;;;;4980537;28;20198;-79
2023/05/19 07:06:16;;;;;;;12.43;6.45;;;11.50;99.90;;;;;;4997449;28;20530;-80
2023/05/19 07:08:42;;;;;;;9.20;5.88;;;11.70;99.90;;;;;;4992599;28;20083;-81
2023/05/19 07:11:08;;;;;;;13.32;5.88;;;12.10;99.90;;;;;;4975770;28;20048;-81
2023/05/19 07:13:33;;;;;;;13.38;5.55;;;12.90;99.90;;;;;;5002926;28;20046;-81
2023/05/19 07:15:59;;;;;;;13.27;5.95;;;14.00;99.90;;;;;;4987542;28;20037;-90
2023/05/19 07:18:25;;;;;;;11.15;5.97;;;15.00;99.90;;;;;;4958639;28;20135;-72
2023/05/19 07:20:52;;;;;;;11.77;6.22;;;15.70;99.90;;;;;;4969839;28;20038;-73
2023/05/19 07:23:18;;;;;;;11.57;4.68;;;16.20;99.90;;;;;;5026139;28;20048;-73
2023/05/19 07:25:43;;;;;;;7.57;4.30;;;16.60;99.90;;;;;;4990926;28;20029;-74
2023/05/19 07:28:09;;;;;;;9.15;4.30;;;16.60;99.90;;;;;;5011856;28;20041;-71
2023/05/19 07:30:35;;;;;;;7.30;3.83;;;16.60;99.90;;;;;;5014322;28;20557;-71
2023/05/19 07:33:01;;;;;;;10.60;4.30;;;16.40;99.90;;;;;;5013018;28;20092;-70
2023/05/19 07:35:26;;;;;;;11.07;4.20;;;16.40;99.90;;;;;;4998074;28;20037;-70
2023/05/19 07:37:52;;;;;;;7.38;3.75;;;16.50;99.90;;;;;;4984604;28;20456;-68
2023/05/19 07:40:18;;;;;;;7.65;3.70;;;16.70;99.90;;;;;;5008142;28;20034;-71
2023/05/19 07:42:43;;;;;;;6.03;3.38;;;17.10;99.90;;;;;;4977086;28;20113;-71
2023/05/19 07:45:10;;;;;;;27.25;4.18;;;17.50;99.80;;;;;;5010800;28;20033;-72
2023/05/19 07:47:36;;;;;;;10.65;3.97;;;17.90;98.60;;;;;;4992166;28;20105;-72
2023/05/19 07:50:02;;;;;;;5.43;2.72;;;18.30;98.50;;;;;;5004971;28;20073;-71
2023/05/19 07:52:28;;;;;;;5.85;2.75;;;18.60;97.20;;;;;;5012054;28;20445;-71
2023/05/19 07:54:54;;;;;;;6.93;2.78;;;19.30;96.40;;;;;;5013014;28;20103;-70
2023/05/19 07:57:19;;;;;;;8.02;2.80;;;19.80;94.80;;;;;;4997172;28;20052;-71
2023/05/19 07:59:45;;;;;;;8.45;3.28;;;19.80;91.30;;;;;;5014015;28;20055;-71
2023/05/19 08:02:11;;;;;;;8.38;2.97;;;20.30;91.00;;;;;;5015198;28;20549;-72
2023/05/19 08:04:36;;;;;;;7.00;3.65;;;20.50;90.50;;;;;;5010771;28;20044;-72
2023/05/19 08:07:02;;;;;;;6.97;3.20;;;20.60;87.90;;;;;;5009221;28;20049;-72
2023/05/19 08:09:28;;;;;;;8.48;3.53;;;20.90;85.90;;;;;;4993419;28;20046;-72
2023/05/19 08:11:54;;;;;;;9.15;3.17;;;20.90;85.00;;;;;;4995457;28;20026;-72
2023/05/19 08:14:21;;;;;;;5.53;2.92;;;21.50;85.10;;;;;;5013630;28;20068;-70
2023/05/19 08:16:47;;;;;;;8.52;2.80;;;21.10;82.40;;;;;;5012715;28;20037;-76
2023/05/19 08:19:13;;;;;;;7.10;2.75;;;20.70;81.70;;;;;;5012298;28;20116;-69
2023/05/19 08:21:41;;;;;;;10.23;3.20;;;20.40;81.20;;;;;;5007752;28;20121;-69
2023/05/19 08:24:07;;;;;;;7.32;3.40;;;20.30;82.40;;;;;;4993502;28;20667;-68
2023/05/19 08:26:32;;;;;;;5.78;3.15;;;20.50;83.20;;;;;;5019377;28;20070;-67
2023/05/19 08:28:58;;;;;;;5.75;3.22;;;20.80;83.80;;;;;;5003885;28;20148;-67
2023/05/19 08:31:24;;;;;;;11.25;3.65;;;20.50;80.10;;;;;;5008492;28;20053;-67
2023/05/19 08:33:50;;;;;;;11.18;3.47;;;20.40;81.40;;;;;;5011800;28;20504;-71
2023/05/19 08:36:15;;;;;;;11.77;3.50;;;20.60;82.10;;;;;;5024725;28;20037;-71
2023/05/19 08:38:41;;;;;;;7.80;3.25;;;20.20;80.50;;;;;;5008316;28;20038;-70
2023/05/19 08:41:07;;;;;;;6.40;3.13;;;20.00;79.70;;;;;;5005044;28;20052;-71
2023/05/19 08:43:33;;;;;;;8.13;3.53;;;19.70;80.40;;;;;;5004370;28;20623;-70
2023/05/19 08:45:59;;;;;;;10.00;3.17;;;19.70;81.10;;;;;;4993975;28;20525;-70
2023/05/19 08:48:29;;;;;;;8.63;3.38;;;19.80;81.40;;;;;;5012027;28;20038;-80
2023/05/19 08:51:40;;;;;;;7.15;3.40;;;20.00;80.10;;;;;;5011669;28;20065;-80
2023/05/19 08:54:16;;;;;;;7.30;2.85;;;20.20;76.10;;;;;;4960196;28;20050;-80
2023/05/19 08:56:46;;;;;;;7.97;2.92;;;20.70;79.20;;;;;;4979640;28;20143;-77
2023/05/19 08:59:13;;;;;;;6.95;2.60;;;20.80;76.20;;;;;;5002330;28;20074;-69
2023/05/19 09:01:43;;;;;;;7.00;2.88;;;21.20;77.40;;;;;;4992826;28;20073;-69
2023/05/19 09:04:09;;;;;;;6.20;2.70;;;21.10;74.20;;;;;;4992263;28;20521;-69
2023/05/19 09:06:34;;;;;;;9.07;3.80;;;21.00;75.90;;;;;;4995551;28;20045;-70
2023/05/19 09:09:00;;;;;;;5.28;2.60;;;20.90;75.20;;;;;;4990483;28;20132;-70
2023/05/19 09:11:26;;;;;;;11.73;2.78;;;20.80;75.30;;;;;;4994575;28;20132;-69
2023/05/19 09:13:52;;;;;;;5.65;2.70;;;20.60;75.50;;;;;;4993338;28;20095;-69
2023/05/19 09:16:18;;;;;;;8.45;3.53;;;20.50;75.80;;;;;;4989050;28;20074;-70
2023/05/19 09:18:57;;;;;;;8.15;3.05;;;20.50;76.80;;;;;;4966240;28;20577;-69
2023/05/19 09:21:32;;;;;;;5.47;2.55;;;20.50;75.60;;;;;;4985281;28;20052;-70
2023/05/19 09:24:03;;;;;;;7.82;3.13;;;20.40;74.30;;;;;;4993387;28;20045;-70
2023/05/19 09:26:40;;;;;;;6.97;3.63;;;20.40;73.50;;;;;;4977986;28;20156;-70
2023/05/19 09:29:14;;;;;;;10.77;2.95;;;20.40;76.30;;;;;;4984456;28;20406;-69
2023/05/19 09:31:50;;;;;;;8.68;3.15;;;20.30;74.80;;;;;;5002702;28;20035;-70
2023/05/19 09:34:16;;;;;;;5.88;3.30;;;20.50;75.00;;;;;;4995644;28;20045;-69
2023/05/19 09:36:42;;;;;;;6.63;2.95;;;20.70;75.70;;;;;;4984594;28;20053;-68
2023/05/19 09:39:15;;;;;;;5.70;2.92;;;20.70;75.10;;;;;;5004526;28;20415;-69
2023/05/19 09:41:42;;;;;;;6.90;2.60;;;20.70;74.70;;;;;;4974618;28;20694;-69
2023/05/19 09:44:28;;;;;;;9.55;2.67;;;20.70;75.60;;;;;;4991341;28;20050;-69
2023/05/19 09:46:54;;;;;;;6.45;2.75;;;20.80;74.90;;;;;;5009436;28;20054;-68
2023/05/19 09:49:28;;;;;;;5.15;2.70;;;20.70;75.10;;;;;;4973709;28;20053;-68
2023/05/19 09:51:55;;;;;;;11.73;3.50;;;20.60;74.70;;;;;;4974458;28;20045;-69
2023/05/19 09:54:30;;;;;;;4.55;2.35;;;20.60;75.40;;;;;;5019826;28;20715;-67
2023/05/19 09:57:00;;;;;;;7.78;3.20;;;20.60;75.70;;;;;;5007535;28;20050;-69
2023/05/19 09:59:27;;;;;;;8.57;2.83;;;20.80;76.20;;;;;;4997989;28;20042;-69
2023/05/19 10:01:57;;;;;;;6.68;2.42;;;20.80;74.70;;;;;;4991151;28;20045;-69
2023/05/19 10:04:25;;;;;;;9.20;2.92;;;20.80;74.00;;;;;;5006955;28;20495;-69
2023/05/19 10:06:53;;;;;;;5.00;2.55;;;20.50;73.50;;;;;;5006456;28;20092;-69
2023/05/19 10:09:26;;;;;;;5.53;3.47;;;20.30;73.10;;;;;;4994162;28;20041;-69
2023/05/19 10:11:53;;;;;;;7.80;2.92;;;20.10;73.30;;;;;;5023344;28;20050;-69
2023/05/19 10:14:23;;;;;;;5.18;2.40;;;20.00;75.20;;;;;;5007076;28;20112;-69
2023/05/19 10:16:53;;;;;;;5.72;2.58;;;20.20;75.10;;;;;;4986320;28;20048;-69
2023/05/19 10:19:23;;;;;;;10.93;2.38;;;20.30;73.40;;;;;;4985190;28;20121;-69
2023/05/19 10:21:50;;;;;;;5.63;2.75;;;20.50;72.50;;;;;;4992576;28;20078;-69
2023/05/19 10:24:16;;;;;;;9.05;2.90;;;20.60;74.00;;;;;;4990180;28;20029;-69
2023/05/19 10:26:59;;;;;;;4.28;2.78;;;20.70;75.20;;;;;;4989757;28;20053;-69
2023/05/19 10:29:27;;;;;;;;;;;20.60;73.80;;;;;;5007110;28;20042;-68
2023/05/19 10:31:55;;;;;;;7.32;3.00;;;20.50;73.50;;;;;;5020998;28;19992;-69
2023/05/19 10:34:50;;;;;;;7.45;3.03;;;20.40;74.30;;;;;;5006651;28;20038;-68
2023/05/19 10:37:36;;;;;;;6.30;2.45;;;20.30;71.40;;;;;;5008736;28;20029;-68
2023/05/19 10:40:29;;;;;;;5.85;2.58;;;20.30;72.00;;;;;;5019259;28;20238;-69
2023/05/19 10:43:16;;;;;;;6.80;2.45;;;20.30;73.00;;;;;;4997674;28;20038;-68
2023/05/19 10:45:50;;;;;;;6.03;2.53;;;20.50;74.90;;;;;;5026998;28;20096;-69
2023/05/19 10:48:18;;;;;;;4.80;1.92;;;20.90;74.10;;;;;;4994876;28;20034;-68
2023/05/19 10:50:45;;;;;;;11.63;3.10;;;21.10;72.90;;;;;;5000223;28;20042;-68
2023/05/19 10:53:21;;;;;;;6.35;2.60;;;21.20;72.80;;;;;;5018517;28;20054;-68
2023/05/19 10:55:57;;;;;;;7.10;2.40;;;21.40;74.90;;;;;;4977029;28;20046;-69
2023/05/19 10:58:42;;;;;;;10.43;2.58;;;21.50;72.90;;;;;;4997949;28;20046;-68
2023/05/19 11:01:15;;;;;;;5.55;2.70;;;21.30;69.90;;;;;;4973623;28;20124;-69
2023/05/19 11:03:48;;;;;;;4.97;2.15;;;21.30;69.50;;;;;;4981883;28;20066;-68
2023/05/19 11:06:25;;;;;;;12.18;2.85;;;21.30;69.40;;;;;;4995103;28;20069;-68
2023/05/19 11:08:56;;;;;;;4.63;2.40;;;21.50;68.20;;;;;;4992870;28;20049;-78
2023/05/19 11:11:23;;;;;;;6.40;2.22;;;21.60;70.80;;;;;;4979005;28;20408;-84
2023/05/19 11:13:53;;;;;;;5.03;2.30;;;21.80;70.80;;;;;;4974534;28;20046;-82
2023/05/19 11:16:31;;;;;;;9.90;2.60;;;21.90;69.40;;;;;;4983623;28;20038;-82
2023/05/19 11:19:00;;;;;;;5.50;2.58;;;21.70;68.90;;;;;;4982365;28;20073;-82
2023/05/19 11:21:47;;;;;;;8.77;2.35;;;21.20;69.60;;;;;;4975612;28;20038;-82
2023/05/19 11:24:43;;;;;;;6.32;2.40;;;21.20;70.60;;;;;;4989284;28;20116;-83
2023/05/19 11:27:32;;;;;;;9.35;2.78;;;21.20;69.70;;;;;;4997827;28;20038;-82
2023/05/19 11:30:00;;;;;;;6.25;2.58;;;21.00;68.30;;;;;;4972873;28;20046;-82
2023/05/19 11:32:28;;;;;;;15.93;2.78;;;20.70;68.70;;;;;;4967760;28;20108;-82
2023/05/19 11:34:55;;;;;;;4.47;2.60;;;20.50;69.30;;;;;;4971421;28;20041;-82
2023/05/19 11:37:21;;;;;;;5.75;2.70;;;20.20;70.70;;;;;;4976588;28;20088;-82
2023/05/19 11:39:47;;;;;;;9.10;3.05;;;20.10;71.40;;;;;;4991706;28;20599;-82
2023/05/19 11:42:13;;;;;;;5.20;2.53;;;20.10;71.80;;;;;;4976580;28;20045;-82
2023/05/19 11:44:44;;;;;;;5.65;2.33;;;20.00;71.10;;;;;;4993756;28;20100;-82
2023/05/19 11:47:14;;;;;;;5.10;2.50;;;19.90;70.90;;;;;;4992385;28;20042;-82
2023/05/19 11:49:58;;;;;;;5.97;2.20;;;20.00;70.30;;;;;;4990285;28;20042;-82
2023/05/19 11:52:26;;;;;;;6.65;2.90;;;20.00;70.50;;;;;;4976743;28;20429;-82
2023/05/19 11:54:52;;;;;;;6.32;2.60;;;20.10;71.60;;;;;;5004528;28;20057;-82
2023/05/19 11:57:18;;;;;;;10.40;2.30;;;20.30;70.50;;;;;;5010202;28;20044;-82
2023/05/19 11:59:46;;;;;;;6.90;2.35;;;20.30;70.40;;;;;;4980679;28;20124;-82
2023/05/19 12:02:15;;;;;;;5.85;2.28;;;20.60;71.50;;;;;;4996915;28;20487;-81
2023/05/19 12:04:40;;;;;;;6.45;2.63;;;20.80;70.50;;;;;;5012497;28;20037;-81
2023/05/19 12:07:07;;;;;;;4.28;2.85;;;21.20;71.00;;;;;;4994375;28;20391;-82
2023/05/19 12:09:32;;;;;;;4.57;2.47;;;21.40;69.70;;;;;;4990147;28;20126;-82
2023/05/19 12:11:59;;;;;;;7.18;2.63;;;21.70;69.80;;;;;;4986527;28;20137;-82
2023/05/19 12:14:26;;;;;;;6.20;2.40;;;21.90;70.00;;;;;;5028184;28;20041;-81
2023/05/19 12:16:51;;;;;;;4.85;2.45;;;21.60;67.70;;;;;;5008045;28;20037;-81
2023/05/19 12:19:17;;;;;;;6.53;2.83;;;21.40;68.70;;;;;;4997201;28;20121;-81
2023/05/19 12:21:43;;;;;;;8.93;2.97;;;21.30;69.00;;;;;;5021455;28;20494;-82
2023/05/19 12:24:10;;;;;;;6.63;2.40;;;21.20;68.60;;;;;;4995405;28;20068;-81
2023/05/19 12:26:36;;;;;;;6.22;2.40;;;21.10;68.50;;;;;;5008463;28;20038;-82
2023/05/19 12:29:05;;;;;;;5.05;2.53;;;21.00;68.70;;;;;;5029259;28;20033;-81
2023/05/19 12:31:32;;;;;;;7.72;2.50;;;21.20;69.20;;;;;;5010456;28;20542;-82
2023/05/19 12:33:58;;;;;;;7.43;2.80;;;21.30;67.80;;;;;;4987639;28;20096;-82
2023/05/19 12:36:25;;;;;;;5.55;2.80;;;21.50;69.30;;;;;;4978043;28;20037;-81
2023/05/19 12:38:54;;;;;;;4.03;2.60;;;21.30;69.90;;;;;;4980425;28;20050;-81
2023/05/19 12:41:20;;;;;;;6.80;2.92;;;21.60;71.90;;;;;;5011141;28;20037;-82
2023/05/19 12:43:46;;;;;;;7.30;3.05;;;21.50;67.90;;;;;;5012642;28;20044;-82
2023/05/19 12:46:12;;;;;;;11.10;2.95;;;21.20;68.10;;;;;;5011372;28;20029;-82
2023/05/19 12:48:44;;;;;;;8.68;3.42;;;21.20;68.50;;;;;;4967921;28;20132;-82
2023/05/19 12:51:18;;;;;;;5.22;3.08;;;21.20;68.10;;;;;;4991224;28;20038;-84
2023/05/19 12:53:44;;;;;;;7.75;2.65;;;21.70;69.70;;;;;;4995272;28;20064;-71